Time,TemperatureF,DewpointF,PressureIn,WindDirection,WindDirectionDegrees,WindSpeedMPH,WindSpeedGustMPH,Humidity,HourlyPrecipIn,Conditions,Clouds,dailyrainin,SoftwareType,DateUTC
2017-02-20 00:00:00,38.4,35.2,30.21,NNW,333,0.0,0.0,88,0.00,,,0.00,Wunderground v.1.13,2017-02-20 05:00:00,
2017-02-20 00:10:00,38.1,34.9,30.22,NNW,333,0.0,0.0,88,0.00,,,0.00,Wunderground v.1.13,2017-02-20 05:10:00,
2017-02-20 00:15:00,38.0,35.0,30.22,NNW,333,0.0,0.0,89,0.00,,,0.00,Wunderground v.1.13,2017-02-20 05:15:00,
2017-02-20 00:20:00,37.9,34.9,30.23,NNW,333,0.0,0.0,89,0.00,,,0.00,Wunderground v.1.13,2017-02-20 05:20:00,
2017-02-20 00:25:00,37.8,34.8,30.23,NNW,333,0.0,0.0,89,0.00,,,0.00,Wunderground v.1.13,2017-02-20 05:25:00,
2017-02-20 00:30:00,37.7,34.8,30.23,NNW,333,0.0,0.0,89,0.00,,,0.00,Wunderground v.1.13,2017-02-20 05:30:00,
2017-02-20 00:40:00,37.4,34.5,30.24,NNW,333,0.0,0.0,89,0.00,,,0.00,Wunderground v.1.13,2017-02-20 05:40:00,
2017-02-20 00:45:00,37.3,34.4,30.24,NNW,333,0.0,0.0,89,0.00,,,0.00,Wunderground v.1.13,2017-02-20 05:45:00,
2017-02-20 00:50:00,37.2,34.3,30.24,NNW,333,0.0,0.0,89,0.00,,,0.00,Wunderground v.1.13,2017-02-20 05:50:00,
2017-02-20 00:55:00,37.2,34.3,30.24,NNW,333,0.0,0.0,89,0.00,,,0.00,Wunderground v.1.13,2017-02-20 05:55:00,
2017-02-20 01:00:00,37.1,34.2,30.24,NNW,333,0.0,0.0,89,0.00,,,0.00,Wunderground v.1.13,2017-02-20 06:00:00,
2017-02-20 01:10:00,36.9,34.2,30.24,NNW,333,0.0,0.0,90,0.00,,,0.00,Wunderground v.1.13,2017-02-20 06:10:00,
2017-02-20 01:15:00,36.8,33.9,30.24,NNW,333,0.0,0.0,89,0.00,,,0.00,Wunderground v.1.13,2017-02-20 06:15:00,
2017-02-20 01:20:00,36.8,34.1,30.24,NNW,333,0.0,0.0,90,0.00,,,0.00,Wunderground v.1.13,2017-02-20 06:20:00,
2017-02-20 01:25:00,36.6,33.9,30.24,NNW,333,0.0,0.0,90,0.00,,,0.00,Wunderground v.1.13,2017-02-20 06:25:00,
2017-02-20 01:30:00,36.5,33.8,30.24,NNW,333,0.0,0.0,90,0.00,,,0.00,Wunderground v.1.13,2017-02-20 06:30:00,
2017-02-20 01:40:00,36.2,33.5,30.24,NNW,333,0.0,0.0,90,0.00,,,0.00,Wunderground v.1.13,2017-02-20 06:40:00,
2017-02-20 01:45:00,36.1,33.5,30.24,NNW,333,0.0,0.0,90,0.00,,,0.00,Wunderground v.1.13,2017-02-20 06:45:00,
2017-02-20 01:50:00,36.1,33.5,30.24,NNW,333,0.0,0.0,90,0.00,,,0.00,Wunderground v.1.13,2017-02-20 06:50:00,
2017-02-20 01:55:00,36.0,33.4,30.24,NNW,333,0.0,0.0,90,0.00,,,0.00,Wunderground v.1.13,2017-02-20 06:55:00,
2017-02-20 02:00:00,35.9,33.3,30.23,NNW,333,0.0,0.0,90,0.00,,,0.00,Wunderground v.1.13,2017-02-20 07:00:00,
2017-02-20 02:10:00,35.6,33.0,30.23,NNW,333,0.0,0.0,90,0.00,,,0.00,Wunderground v.1.13,2017-02-20 07:10:00,
2017-02-20 02:15:00,35.5,32.9,30.23,NNW,333,0.0,0.0,90,0.00,,,0.00,Wunderground v.1.13,2017-02-20 07:15:00,
2017-02-20 02:25:00,35.5,33.1,30.23,NNW,333,0.0,0.0,91,0.00,,,0.00,Wunderground v.1.13,2017-02-20 07:25:00,
2017-02-20 02:30:00,35.5,33.1,30.23,NNW,333,0.0,0.0,91,0.00,,,0.00,Wunderground v.1.13,2017-02-20 07:30:00,
2017-02-20 02:35:00,35.5,33.1,30.23,NNW,333,0.0,0.0,91,0.00,,,0.00,Wunderground v.1.13,2017-02-20 07:35:00,
2017-02-20 02:40:00,35.4,33.0,30.23,NNW,333,0.0,0.0,91,0.00,,,0.00,Wunderground v.1.13,2017-02-20 07:40:00,
2017-02-20 02:45:00,35.4,33.0,30.23,NNW,333,0.0,0.0,91,0.00,,,0.00,Wunderground v.1.13,2017-02-20 07:45:00,
2017-02-20 02:50:00,35.4,33.0,30.23,NNW,333,0.0,0.0,91,0.00,,,0.00,Wunderground v.1.13,2017-02-20 07:50:00,
2017-02-20 03:00:00,35.2,32.8,30.23,NNW,333,0.0,0.0,91,0.00,,,0.00,Wunderground v.1.13,2017-02-20 08:00:00,
2017-02-20 03:05:00,35.1,32.7,30.23,NNW,333,0.0,0.0,91,0.00,,,0.00,Wunderground v.1.13,2017-02-20 08:05:00,
2017-02-20 03:10:00,35.0,32.6,30.23,NNW,333,0.0,0.0,91,0.00,,,0.00,Wunderground v.1.13,2017-02-20 08:10:00,
2017-02-20 03:15:00,34.9,32.5,30.23,NNW,333,0.0,0.0,91,0.00,,,0.00,Wunderground v.1.13,2017-02-20 08:15:00,
2017-02-20 03:25:00,34.7,32.3,30.23,NNW,333,0.0,0.0,91,0.00,,,0.00,Wunderground v.1.13,2017-02-20 08:25:00,
2017-02-20 03:35:00,34.4,32.0,30.23,NNW,333,0.0,0.0,91,0.00,,,0.00,Wunderground v.1.13,2017-02-20 08:35:00,
2017-02-20 03:40:00,34.4,32.0,30.23,NNW,333,0.0,0.0,91,0.00,,,0.00,Wunderground v.1.13,2017-02-20 08:40:00,
2017-02-20 03:45:00,34.4,32.0,30.23,NNW,333,0.0,0.0,91,0.00,,,0.00,Wunderground v.1.13,2017-02-20 08:45:00,
2017-02-20 03:50:00,34.2,31.8,30.23,NNW,333,0.0,0.0,91,0.00,,,0.00,Wunderground v.1.13,2017-02-20 08:50:00,
2017-02-20 03:55:00,34.1,31.7,30.23,NNW,333,0.0,0.0,91,0.00,,,0.00,Wunderground v.1.13,2017-02-20 08:55:00,
2017-02-20 04:00:00,33.9,31.6,30.23,NNW,333,0.0,0.0,91,0.00,,,0.00,Wunderground v.1.13,2017-02-20 09:00:00,
2017-02-20 04:10:00,33.8,31.5,30.23,NNW,333,0.0,0.0,91,0.00,,,0.00,Wunderground v.1.13,2017-02-20 09:10:00,
2017-02-20 04:15:00,33.8,31.5,30.23,NNW,333,0.0,0.0,91,0.00,,,0.00,Wunderground v.1.13,2017-02-20 09:15:00,
2017-02-20 04:20:00,33.7,31.4,30.22,NNW,333,0.0,0.0,91,0.00,,,0.00,Wunderground v.1.13,2017-02-20 09:20:00,
2017-02-20 04:25:00,33.6,31.3,30.22,NNW,333,0.0,0.0,91,0.00,,,0.00,Wunderground v.1.13,2017-02-20 09:25:00,
2017-02-20 04:30:00,33.5,31.2,30.22,NNW,333,0.0,0.0,91,0.00,,,0.00,Wunderground v.1.13,2017-02-20 09:30:00,
2017-02-20 04:40:00,33.4,31.1,30.22,NNW,333,0.0,0.0,91,0.00,,,0.00,Wunderground v.1.13,2017-02-20 09:40:00,
2017-02-20 04:45:00,33.3,31.2,30.22,NNW,333,0.0,0.0,92,0.00,,,0.00,Wunderground v.1.13,2017-02-20 09:45:00,
2017-02-20 04:50:00,33.2,31.1,30.23,NNW,333,0.0,0.0,92,0.00,,,0.00,Wunderground v.1.13,2017-02-20 09:50:00,
2017-02-20 04:55:00,33.2,31.1,30.24,NNW,333,0.0,0.0,92,0.00,,,0.00,Wunderground v.1.13,2017-02-20 09:55:00,
2017-02-20 05:00:00,33.2,31.1,30.24,NNW,333,0.0,0.0,92,0.00,,,0.00,Wunderground v.1.13,2017-02-20 10:00:00,
2017-02-20 05:10:00,33.0,30.9,30.24,NNW,333,0.0,0.0,92,0.00,,,0.00,Wunderground v.1.13,2017-02-20 10:10:00,
2017-02-20 05:15:00,33.0,30.9,30.24,NNW,333,0.0,0.0,92,0.00,,,0.00,Wunderground v.1.13,2017-02-20 10:15:00,
2017-02-20 05:20:00,32.9,30.8,30.24,NNW,333,0.0,0.0,92,0.00,,,0.00,Wunderground v.1.13,2017-02-20 10:20:00,
2017-02-20 05:25:00,32.8,30.7,30.24,NNW,333,0.0,0.0,92,0.00,,,0.00,Wunderground v.1.13,2017-02-20 10:25:00,
2017-02-20 05:30:00,32.7,30.6,30.24,NNW,333,0.0,0.0,92,0.00,,,0.00,Wunderground v.1.13,2017-02-20 10:30:00,
2017-02-20 05:40:00,32.5,30.4,30.24,NNW,333,0.0,0.0,92,0.00,,,0.00,Wunderground v.1.13,2017-02-20 10:40:00,
2017-02-20 05:45:00,32.4,30.3,30.24,NNW,333,0.0,0.0,92,0.00,,,0.00,Wunderground v.1.13,2017-02-20 10:45:00,
2017-02-20 05:50:00,32.5,30.4,30.25,NNW,333,0.0,0.0,92,0.00,,,0.00,Wunderground v.1.13,2017-02-20 10:50:00,
2017-02-20 05:55:00,32.4,30.3,30.25,NNW,333,0.0,0.0,92,0.00,,,0.00,Wunderground v.1.13,2017-02-20 10:55:00,
2017-02-20 06:00:00,32.3,30.2,30.25,NNW,333,0.0,0.0,92,0.00,,,0.00,Wunderground v.1.13,2017-02-20 11:00:00,
2017-02-20 06:10:00,32.2,30.1,30.25,NNW,333,0.0,0.0,92,0.00,,,0.00,Wunderground v.1.13,2017-02-20 11:10:00,
2017-02-20 06:15:00,32.1,30.0,30.25,NNW,333,0.0,0.0,92,0.00,,,0.00,Wunderground v.1.13,2017-02-20 11:15:00,
2017-02-20 06:25:00,31.9,29.8,30.26,NNW,333,0.0,0.0,92,0.00,,,0.00,Wunderground v.1.13,2017-02-20 11:25:00,
2017-02-20 06:30:00,31.8,29.7,30.26,NNW,333,0.0,0.0,92,0.00,,,0.00,Wunderground v.1.13,2017-02-20 11:30:00,
2017-02-20 06:40:00,31.6,29.5,30.26,NNW,333,0.0,0.0,92,0.00,,,0.00,Wunderground v.1.13,2017-02-20 11:40:00,
2017-02-20 06:45:00,31.6,29.5,30.27,NNW,333,0.0,0.0,92,0.00,,,0.00,Wunderground v.1.13,2017-02-20 11:45:00,
2017-02-20 06:50:00,31.6,29.5,30.27,NNW,333,0.0,0.0,92,0.00,,,0.00,Wunderground v.1.13,2017-02-20 11:50:00,
2017-02-20 07:00:00,31.5,29.4,30.27,NNW,333,0.0,0.0,92,0.00,,,0.00,Wunderground v.1.13,2017-02-20 12:00:00,
2017-02-20 07:05:00,31.6,29.5,30.27,NNW,333,0.0,0.0,92,0.00,,,0.00,Wunderground v.1.13,2017-02-20 12:05:00,
2017-02-20 07:10:00,31.7,29.6,30.28,NNW,333,0.0,0.0,92,0.00,,,0.00,Wunderground v.1.13,2017-02-20 12:10:00,
2017-02-20 07:20:00,31.7,29.6,30.29,NNW,333,0.0,0.0,92,0.00,,,0.00,Wunderground v.1.13,2017-02-20 12:20:00,
2017-02-20 07:25:00,31.8,29.7,30.29,NNW,333,0.0,0.0,92,0.00,,,0.00,Wunderground v.1.13,2017-02-20 12:25:00,
2017-02-20 07:30:00,31.8,29.7,30.29,NNW,333,0.0,0.0,92,0.00,,,0.00,Wunderground v.1.13,2017-02-20 12:30:00,
2017-02-20 07:35:00,31.7,29.6,30.30,NNW,333,0.0,0.0,92,0.00,,,0.00,Wunderground v.1.13,2017-02-20 12:35:00,
2017-02-20 07:40:00,31.9,30.1,30.30,NNW,333,0.0,0.0,93,0.00,,,0.00,Wunderground v.1.13,2017-02-20 12:40:00,
2017-02-20 07:50:00,32.4,30.6,30.30,NNW,333,0.0,0.0,93,0.00,,,0.00,Wunderground v.1.13,2017-02-20 12:50:00,
2017-02-20 07:55:00,32.6,30.8,30.31,NNW,333,0.0,0.0,93,0.00,,,0.00,Wunderground v.1.13,2017-02-20 12:55:00,
2017-02-20 08:00:00,32.9,31.1,30.31,NNW,333,0.0,0.0,93,0.00,,,0.00,Wunderground v.1.13,2017-02-20 13:00:00,
2017-02-20 08:05:00,33.4,31.9,30.31,NNW,333,0.0,0.0,94,0.00,,,0.00,Wunderground v.1.13,2017-02-20 13:05:00,
2017-02-20 08:10:00,34.1,32.6,30.31,NNW,333,0.0,0.0,94,0.00,,,0.00,Wunderground v.1.13,2017-02-20 13:10:00,
2017-02-20 08:15:00,34.6,33.1,30.31,NNW,333,0.0,0.0,94,0.00,,,0.00,Wunderground v.1.13,2017-02-20 13:15:00,
2017-02-20 08:25:00,36.0,34.7,30.31,NNW,333,0.0,0.0,95,0.00,,,0.00,Wunderground v.1.13,2017-02-20 13:25:00,
2017-02-20 08:30:00,37.4,36.4,30.31,NNW,333,0.0,0.0,96,0.00,,,0.00,Wunderground v.1.13,2017-02-20 13:30:00,
2017-02-20 08:35:00,38.6,37.6,30.31,NNW,333,0.0,0.0,96,0.00,,,0.00,Wunderground v.1.13,2017-02-20 13:35:00,
2017-02-20 08:45:00,41.4,40.3,30.30,NNW,333,0.0,0.0,96,0.00,,,0.00,Wunderground v.1.13,2017-02-20 13:45:00,
2017-02-20 08:55:00,44.9,44.1,30.31,NNW,333,0.0,0.0,97,0.00,,,0.00,Wunderground v.1.13,2017-02-20 13:55:00,
2017-02-20 09:00:00,46.2,45.4,30.31,NNW,333,0.0,0.0,97,0.00,,,0.00,Wunderground v.1.13,2017-02-20 14:00:00,
2017-02-20 09:05:00,47.2,46.1,30.31,NNW,333,0.0,0.0,96,0.00,,,0.00,Wunderground v.1.13,2017-02-20 14:05:00,
2017-02-20 09:10:00,47.9,46.5,30.31,NNW,333,0.0,0.0,95,0.00,,,0.00,Wunderground v.1.13,2017-02-20 14:10:00,
2017-02-20 09:20:00,49.7,47.2,30.30,NNW,333,0.0,2.0,91,0.00,,,0.00,Wunderground v.1.13,2017-02-20 14:20:00,
2017-02-20 09:25:00,50.3,47.2,30.31,NNW,333,0.0,0.0,89,0.00,,,0.00,Wunderground v.1.13,2017-02-20 14:25:00,
2017-02-20 09:30:00,51.2,47.8,30.31,NNW,333,0.0,0.0,88,0.00,,,0.00,Wunderground v.1.13,2017-02-20 14:30:00,
2017-02-20 09:35:00,51.8,47.4,30.30,NNW,333,0.0,0.0,85,0.00,,,0.00,Wunderground v.1.13,2017-02-20 14:35:00,
2017-02-20 09:40:00,52.3,47.6,30.30,NNW,333,0.0,1.0,84,0.00,,,0.00,Wunderground v.1.13,2017-02-20 14:40:00,
2017-02-20 09:45:00,53.0,47.7,30.31,NNW,333,0.0,0.0,82,0.00,,,0.00,Wunderground v.1.13,2017-02-20 14:45:00,
2017-02-20 09:55:00,53.9,47.9,30.30,NNW,334,1.0,6.0,80,0.00,,,0.00,Wunderground v.1.13,2017-02-20 14:55:00,
2017-02-20 10:00:00,54.2,47.8,30.30,NNW,335,2.0,2.0,79,0.00,,,0.00,Wunderground v.1.13,2017-02-20 15:00:00,
2017-02-20 10:10:00,55.4,48.3,30.30,NNW,336,1.0,3.0,77,0.00,,,0.00,Wunderground v.1.13,2017-02-20 15:10:00,
2017-02-20 10:15:00,56.0,48.2,30.30,NNW,340,1.0,6.0,75,0.00,,,0.00,Wunderground v.1.13,2017-02-20 15:15:00,
2017-02-20 10:20:00,56.2,48.0,30.29,NNW,343,2.0,2.0,74,0.00,,,0.00,Wunderground v.1.13,2017-02-20 15:20:00,
2017-02-20 10:30:00,56.4,48.6,30.30,NNW,344,1.0,1.0,75,0.00,,,0.00,Wunderground v.1.13,2017-02-20 15:30:00,
2017-02-20 10:35:00,57.1,48.5,30.30,NNW,344,1.0,1.0,73,0.00,,,0.00,Wunderground v.1.13,2017-02-20 15:35:00,
2017-02-20 10:40:00,57.7,49.1,30.30,NNW,346,1.0,1.0,73,0.00,,,0.00,Wunderground v.1.13,2017-02-20 15:40:00,
2017-02-20 10:45:00,58.2,49.2,30.30,NNW,346,0.0,0.0,72,0.00,,,0.00,Wunderground v.1.13,2017-02-20 15:45:00,
2017-02-20 10:50:00,58.6,48.8,30.30,North,355,1.0,1.0,70,0.00,,,0.00,Wunderground v.1.13,2017-02-20 15:50:00,
2017-02-20 10:55:00,59.0,49.2,30.29,North,360,2.0,2.0,70,0.00,,,0.00,Wunderground v.1.13,2017-02-20 15:55:00,
2017-02-20 11:05:00,59.3,48.7,30.29,North,360,1.0,1.0,68,0.00,,,0.00,Wunderground v.1.13,2017-02-20 16:05:00,
2017-02-20 11:10:00,59.4,48.8,30.29,North,11,2.0,2.0,68,0.00,,,0.00,Wunderground v.1.13,2017-02-20 16:10:00,
2017-02-20 11:15:00,59.9,49.3,30.29,NNE,17,2.0,2.0,68,0.00,,,0.00,Wunderground v.1.13,2017-02-20 16:15:00,
2017-02-20 11:20:00,60.2,49.2,30.28,NNE,28,2.0,2.0,67,0.00,,,0.00,Wunderground v.1.13,2017-02-20 16:20:00,
2017-02-20 11:25:00,60.7,49.7,30.28,NNE,28,1.0,1.0,67,0.00,,,0.00,Wunderground v.1.13,2017-02-20 16:25:00,
2017-02-20 11:30:00,60.8,49.8,30.27,NNE,30,1.0,1.0,67,0.00,,,0.00,Wunderground v.1.13,2017-02-20 16:30:00,
2017-02-20 11:35:00,61.2,50.2,30.27,NNE,30,1.0,1.0,67,0.00,,,0.00,Wunderground v.1.13,2017-02-20 16:35:00,
2017-02-20 11:40:00,61.9,50.0,30.27,NNE,31,1.0,1.0,65,0.00,,,0.00,Wunderground v.1.13,2017-02-20 16:40:00,
2017-02-20 11:45:00,62.3,50.0,30.27,NNE,31,1.0,6.0,64,0.00,,,0.00,Wunderground v.1.13,2017-02-20 16:45:00,
2017-02-20 11:50:00,62.2,49.9,30.27,NNE,33,1.0,1.0,64,0.00,,,0.00,Wunderground v.1.13,2017-02-20 16:50:00,
2017-02-20 11:55:00,62.2,49.4,30.27,NE,49,3.0,3.0,63,0.00,,,0.00,Wunderground v.1.13,2017-02-20 16:55:00,
2017-02-20 12:00:00,62.4,48.8,30.27,ENE,60,4.0,4.0,61,0.00,,,0.00,Wunderground v.1.13,2017-02-20 17:00:00,
2017-02-20 12:10:00,63.1,50.3,30.26,ENE,60,1.0,4.0,63,0.00,,,0.00,Wunderground v.1.13,2017-02-20 17:10:00,
2017-02-20 12:15:00,63.6,50.8,30.26,ENE,60,1.0,3.0,63,0.00,,,0.00,Wunderground v.1.13,2017-02-20 17:15:00,
2017-02-20 12:20:00,63.5,50.2,30.25,ENE,60,2.0,3.0,62,0.00,,,0.00,Wunderground v.1.13,2017-02-20 17:20:00,
2017-02-20 12:25:00,63.2,50.4,30.24,ENE,59,3.0,5.0,63,0.00,,,0.00,Wunderground v.1.13,2017-02-20 17:25:00,
2017-02-20 12:30:00,63.2,50.8,30.24,ENE,59,3.0,3.0,64,0.00,,,0.00,Wunderground v.1.13,2017-02-20 17:30:00,
2017-02-20 12:35:00,63.3,50.5,30.23,ENE,59,2.0,2.0,63,0.00,,,0.00,Wunderground v.1.13,2017-02-20 17:35:00,
2017-02-20 12:45:00,63.4,50.6,30.23,ENE,59,3.0,4.0,63,0.00,,,0.00,Wunderground v.1.13,2017-02-20 17:45:00,
2017-02-20 12:50:00,63.5,50.7,30.23,NE,55,4.0,5.0,63,0.00,,,0.00,Wunderground v.1.13,2017-02-20 17:50:00,
2017-02-20 12:55:00,63.3,50.5,30.23,NE,39,5.0,9.0,63,0.00,,,0.00,Wunderground v.1.13,2017-02-20 17:55:00,
2017-02-20 13:00:00,63.0,50.2,30.23,NE,36,6.0,7.0,63,0.00,,,0.00,Wunderground v.1.13,2017-02-20 18:00:00,
2017-02-20 13:10:00,63.1,50.3,30.23,NE,34,5.0,8.0,63,0.00,,,0.00,Wunderground v.1.13,2017-02-20 18:10:00,
2017-02-20 13:20:00,63.6,50.3,30.22,NNE,33,4.0,4.0,62,0.00,,,0.00,Wunderground v.1.13,2017-02-20 18:20:00,
2017-02-20 13:25:00,63.8,50.5,30.22,NNE,32,4.0,5.0,62,0.00,,,0.00,Wunderground v.1.13,2017-02-20 18:25:00,
2017-02-20 13:30:00,63.9,50.6,30.22,NNE,32,4.0,4.0,62,0.00,,,0.00,Wunderground v.1.13,2017-02-20 18:30:00,
2017-02-20 13:35:00,64.0,50.3,30.22,NNE,32,4.0,4.0,61,0.00,,,0.00,Wunderground v.1.13,2017-02-20 18:35:00,
2017-02-20 13:40:00,64.1,49.9,30.22,NNE,32,3.0,3.0,60,0.00,,,0.00,Wunderground v.1.13,2017-02-20 18:40:00,
2017-02-20 13:45:00,64.0,49.4,30.22,NNE,32,3.0,3.0,59,0.00,,,0.00,Wunderground v.1.13,2017-02-20 18:45:00,
2017-02-20 13:55:00,64.1,49.5,30.22,NNE,32,4.0,4.0,59,0.00,,,0.00,Wunderground v.1.13,2017-02-20 18:55:00,
2017-02-20 14:00:00,64.3,49.7,30.22,NNE,32,3.0,4.0,59,0.00,,,0.00,Wunderground v.1.13,2017-02-20 19:00:00,
2017-02-20 14:10:00,65.0,49.4,30.21,NNE,32,2.0,2.0,57,0.00,,,0.00,Wunderground v.1.13,2017-02-20 19:10:00,
2017-02-20 14:15:00,65.3,49.2,30.21,NNE,32,2.0,2.0,56,0.00,,,0.00,Wunderground v.1.13,2017-02-20 19:15:00,
2017-02-20 14:20:00,65.5,48.9,30.21,NNE,32,1.0,1.0,55,0.00,,,0.00,Wunderground v.1.13,2017-02-20 19:20:00,
2017-02-20 14:30:00,65.9,49.3,30.21,NNE,32,0.0,0.0,55,0.00,,,0.00,Wunderground v.1.13,2017-02-20 19:30:00,
2017-02-20 14:35:00,66.2,49.6,30.20,NNE,32,0.0,0.0,55,0.00,,,0.00,Wunderground v.1.13,2017-02-20 19:35:00,
2017-02-20 14:40:00,66.5,49.3,30.20,NNE,32,0.0,0.0,54,0.00,,,0.00,Wunderground v.1.13,2017-02-20 19:40:00,
2017-02-20 14:45:00,66.7,49.5,30.20,NNE,32,0.0,1.0,54,0.00,,,0.00,Wunderground v.1.13,2017-02-20 19:45:00,
2017-02-20 14:50:00,67.0,49.3,30.20,NNE,32,0.0,0.0,53,0.00,,,0.00,Wunderground v.1.13,2017-02-20 19:50:00,
2017-02-20 15:00:00,67.2,49.0,30.20,NNE,32,0.0,0.0,52,0.00,,,0.00,Wunderground v.1.13,2017-02-20 20:00:00,
2017-02-20 15:05:00,67.2,49.5,30.20,NNE,32,0.0,0.0,53,0.00,,,0.00,Wunderground v.1.13,2017-02-20 20:05:00,
2017-02-20 15:15:00,67.4,49.2,30.20,NNE,32,0.0,0.0,52,0.00,,,0.00,Wunderground v.1.13,2017-02-20 20:15:00,
2017-02-20 15:20:00,67.6,49.3,30.20,NNE,32,0.0,3.0,52,0.00,,,0.00,Wunderground v.1.13,2017-02-20 20:20:00,
2017-02-20 15:25:00,67.8,49.0,30.20,NNE,32,0.0,0.0,51,0.00,,,0.00,Wunderground v.1.13,2017-02-20 20:25:00,
2017-02-20 15:35:00,67.8,49.0,30.20,NNE,32,0.0,0.0,51,0.00,,,0.00,Wunderground v.1.13,2017-02-20 20:35:00,
2017-02-20 15:40:00,68.1,48.8,30.19,NNE,32,0.0,0.0,50,0.00,,,0.00,Wunderground v.1.13,2017-02-20 20:40:00,
2017-02-20 15:45:00,68.1,48.2,30.19,NNE,32,0.0,0.0,49,0.00,,,0.00,Wunderground v.1.13,2017-02-20 20:45:00,
2017-02-20 15:50:00,68.3,48.4,30.19,NNE,32,0.0,0.0,49,0.00,,,0.00,Wunderground v.1.13,2017-02-20 20:50:00,
2017-02-20 15:55:00,68.2,48.3,30.19,NNE,32,0.0,0.0,49,0.00,,,0.00,Wunderground v.1.13,2017-02-20 20:55:00,
2017-02-20 16:00:00,68.2,48.3,30.19,NNE,32,0.0,0.0,49,0.00,,,0.00,Wunderground v.1.13,2017-02-20 21:00:00,
2017-02-20 16:05:00,68.2,48.3,30.18,NNE,32,0.0,0.0,49,0.00,,,0.00,Wunderground v.1.13,2017-02-20 21:05:00,
2017-02-20 16:10:00,68.1,47.7,30.18,NNE,32,0.0,0.0,48,0.00,,,0.00,Wunderground v.1.13,2017-02-20 21:10:00,
2017-02-20 16:15:00,68.0,48.1,30.18,NNE,32,0.0,0.0,49,0.00,,,0.00,Wunderground v.1.13,2017-02-20 21:15:00,
2017-02-20 16:20:00,68.0,48.1,30.18,NNE,32,0.0,0.0,49,0.00,,,0.00,Wunderground v.1.13,2017-02-20 21:20:00,
2017-02-20 16:25:00,68.2,48.8,30.18,NNE,32,0.0,0.0,50,0.00,,,0.00,Wunderground v.1.13,2017-02-20 21:25:00,
2017-02-20 16:30:00,68.3,48.4,30.18,NNE,32,0.0,0.0,49,0.00,,,0.00,Wunderground v.1.13,2017-02-20 21:30:00,
2017-02-20 16:40:00,68.8,48.3,30.17,NNE,32,0.0,0.0,48,0.00,,,0.00,Wunderground v.1.13,2017-02-20 21:40:00,
2017-02-20 16:45:00,68.9,48.4,30.18,NNE,32,0.0,0.0,48,0.00,,,0.00,Wunderground v.1.13,2017-02-20 21:45:00,
2017-02-20 16:50:00,68.8,48.3,30.18,NNE,32,0.0,0.0,48,0.00,,,0.00,Wunderground v.1.13,2017-02-20 21:50:00,